Beards Fork, West Virginia
Current Conditions -  °F | °C
As of 2:51 PM on Thursday 18 Dec 2014 (Local Time) from KBKW Reporting Station
Overcast Overcast  
Wind Chill: 30°   Ceiling: 9000
Heat Index: 35°   Visibility: 10mi
Dew Point: 21°   Wind: 6mph
Humidity: 57%   Direction: 280°W
Pressure: 30.06"   Gusts: NA
Location:  38.096°N, 81.2492°W
Report Text: KBKW 181951Z AUTO 28005KT 10SM OVC090 02/M06 A3006 RMK AO2 SLP207 T00171061 $
Loading
Personal Weather Stations






























Interactive Weather Map New forecast layout! Learn more

10-Day Weather Forecast

Advertisements
Track Severe Weather on mobile